createdAt,value
2023-02-01T00:01:27.896Z,59.30
2023-02-01T00:03:56.156Z,57.40
2023-02-01T00:06:25.782Z,60.40
2023-02-01T00:08:55.523Z,55.60
2023-02-01T00:11:25.018Z,54.10
2023-02-01T00:13:53.874Z,65.80
2023-02-01T00:16:24.696Z,53.40
2023-02-01T00:18:57.215Z,48.10
2023-02-01T00:21:28.142Z,53.40
2023-02-01T00:23:57.134Z,70.20
2023-02-01T00:26:37.337Z,110.20
2023-02-01T00:29:10.377Z,49.00
2023-02-01T00:31:38.578Z,50.00
2023-02-01T00:34:09.886Z,50.10
2023-02-01T00:36:38.616Z,47.20
2023-02-01T00:39:06.764Z,45.40
2023-02-01T00:41:35.761Z,44.70
2023-02-01T00:44:04.946Z,45.90
2023-02-01T00:46:33.670Z,46.40
2023-02-01T00:49:03.248Z,45.80
2023-02-01T00:51:31.944Z,48.60
2023-02-01T00:54:00.318Z,50.20
2023-02-01T00:56:28.819Z,48.40
2023-02-01T00:58:57.660Z,48.30
2023-02-01T01:01:28.316Z,50.40
2023-02-01T01:03:59.334Z,54.50
2023-02-01T01:06:30.403Z,53.10
2023-02-01T01:09:00.879Z,53.80
2023-02-01T01:11:32.529Z,54.30
2023-02-01T01:14:01.690Z,55.40
2023-02-01T01:16:32.039Z,57.70
2023-02-01T01:19:00.898Z,61.80
2023-02-01T01:21:30.309Z,57.60
2023-02-01T01:23:58.994Z,54.00
2023-02-01T01:26:29.033Z,54.60
2023-02-01T01:28:59.129Z,51.00
2023-02-01T01:31:29.066Z,51.50
2023-02-01T01:33:59.650Z,54.90
2023-02-01T01:36:30.014Z,57.90
2023-02-01T01:38:58.687Z,52.90
2023-02-01T01:41:31.978Z,57.40
2023-02-01T01:44:07.746Z,55.00
2023-02-01T01:46:42.042Z,54.20
2023-02-01T01:49:23.436Z,54.70
2023-02-01T01:51:56.941Z,52.00
2023-02-01T01:54:35.844Z,54.30
2023-02-01T01:57:15.608Z,52.40
2023-02-01T01:59:51.878Z,54.00
2023-02-01T02:02:21.205Z,58.20
2023-02-01T02:04:49.864Z,54.90
2023-02-01T02:07:24.678Z,52.30
2023-02-01T02:10:00.848Z,55.60
2023-02-01T02:12:29.922Z,61.90
2023-02-01T02:14:58.732Z,60.00
2023-02-01T02:17:45.541Z,68.00
2023-02-01T02:20:53.643Z,84.70
2023-02-01T02:23:37.086Z,104.50
2023-02-01T02:26:27.473Z,130.00
2023-02-01T02:29:21.459Z,86.30
2023-02-01T02:31:52.637Z,60.70
2023-02-01T02:34:34.295Z,69.90
2023-02-01T02:37:12.406Z,78.10
2023-02-01T02:39:58.909Z,71.10
2023-02-01T02:43:01.634Z,72.90
2023-02-01T02:46:15.024Z,94.30
2023-02-01T02:48:49.886Z,68.30
2023-02-01T02:51:40.557Z,82.40
2023-02-01T02:54:40.987Z,85.80
2023-02-01T02:57:32.592Z,159.90
2023-02-01T03:00:23.465Z,184.70
2023-02-01T03:03:11.792Z,172.00
2023-02-01T03:08:24.204Z,60.10
2023-02-01T03:11:06.919Z,167.40
2023-02-01T03:13:48.707Z,186.50
2023-02-01T03:16:29.257Z,106.20
2023-02-01T03:19:01.391Z,65.40
2023-02-01T03:21:39.152Z,81.50
2023-02-01T03:26:43.515Z,179.20
2023-02-01T03:29:20.810Z,191.60
2023-02-01T03:31:49.379Z,76.30
2023-02-01T03:34:18.443Z,181.10
2023-02-01T03:36:55.313Z,166.90
2023-02-01T03:39:37.517Z,260.80
2023-02-01T03:42:13.967Z,193.40
2023-02-01T03:44:51.074Z,196.50
2023-02-01T03:47:25.084Z,79.70
2023-02-01T03:50:02.380Z,121.90
2023-02-01T03:52:46.225Z,70.50
2023-02-01T03:55:19.208Z,137.20
2023-02-01T03:57:54.356Z,197.40
2023-02-01T04:00:25.988Z,59.90
2023-02-01T04:02:54.988Z,101.50
2023-02-01T04:05:24.343Z,103.10
2023-02-01T04:08:13.346Z,90.10
2023-02-01T04:10:42.033Z,90.60
2023-02-01T04:13:10.822Z,50.90
2023-02-01T04:15:39.509Z,119.30
2023-02-01T04:18:07.786Z,90.40
2023-02-01T04:20:36.063Z,83.40
2023-02-01T04:23:04.344Z,68.50
2023-02-01T04:25:32.489Z,53.70
2023-02-01T04:28:00.893Z,50.30
2023-02-01T04:30:29.310Z,47.80
2023-02-01T04:32:57.451Z,45.10
2023-02-01T04:35:25.628Z,45.80
2023-02-01T04:37:54.123Z,46.10
2023-02-01T04:40:22.737Z,52.10
2023-02-01T04:42:51.377Z,50.40
2023-02-01T04:45:20.264Z,53.40
2023-02-01T04:47:49.873Z,47.80
2023-02-01T04:50:18.319Z,49.50
2023-02-01T04:52:46.693Z,58.20
2023-02-01T04:55:14.918Z,122.80
2023-02-01T04:57:43.183Z,75.00
2023-02-01T05:00:12.485Z,92.30
2023-02-01T05:02:40.858Z,56.10
2023-02-01T05:05:09.882Z,263.20
2023-02-01T05:07:38.756Z,69.90
2023-02-01T05:10:07.846Z,198.30
2023-02-01T05:12:54.756Z,180.50
2023-02-01T05:15:23.036Z,74.20
2023-02-01T05:17:51.209Z,101.00
2023-02-01T05:20:19.381Z,38.40
2023-02-01T05:22:47.577Z,53.70
2023-02-01T05:25:15.897Z,61.00
2023-02-01T05:27:44.214Z,75.40
2023-02-01T05:30:13.305Z,35.80
2023-02-01T05:32:41.584Z,70.40
2023-02-01T05:35:10.169Z,56.10
2023-02-01T05:37:38.453Z,82.00
2023-02-01T05:40:07.859Z,82.40
2023-02-01T05:42:36.386Z,44.80
2023-02-01T05:45:06.388Z,35.60
2023-02-01T05:47:34.830Z,170.50
2023-02-01T05:50:04.543Z,86.10
2023-02-01T05:52:33.450Z,77.70
2023-02-01T05:55:01.707Z,42.40
2023-02-01T05:57:29.835Z,48.70
2023-02-01T06:00:00.211Z,54.40
2023-02-01T06:02:29.022Z,73.40
2023-02-01T06:04:57.580Z,82.50
2023-02-01T06:07:27.133Z,58.60
2023-02-01T06:09:56.394Z,126.40
2023-02-01T06:12:24.765Z,64.40
2023-02-01T06:14:53.245Z,69.90
2023-02-01T06:17:21.625Z,66.60
2023-02-01T06:19:50.210Z,162.20
2023-02-01T06:22:18.587Z,49.90
2023-02-01T06:24:46.771Z,43.40
2023-02-01T06:27:15.756Z,58.40
2023-02-01T06:29:44.385Z,95.60
2023-02-01T06:32:12.821Z,38.70
2023-02-01T06:34:40.900Z,42.10
2023-02-01T06:37:09.172Z,110.30
2023-02-01T06:39:37.242Z,105.60
2023-02-01T06:42:05.418Z,145.20
2023-02-01T06:44:33.592Z,201.40
2023-02-01T06:47:01.956Z,81.10
2023-02-01T06:49:30.452Z,77.60
2023-02-01T06:52:01.361Z,103.10
2023-02-01T06:54:30.718Z,45.20
2023-02-01T06:56:59.177Z,20.50
2023-02-01T06:59:27.555Z,27.00
2023-02-01T07:01:56.199Z,21.90
2023-02-01T07:04:24.420Z,25.20
2023-02-01T07:06:52.600Z,28.30
2023-02-01T07:09:21.272Z,65.90
2023-02-01T07:11:49.423Z,56.40
2023-02-01T07:14:17.726Z,45.90
2023-02-01T07:16:45.907Z,40.60
2023-02-01T07:19:14.585Z,17.90
2023-02-01T07:21:42.964Z,95.20
2023-02-01T07:24:11.144Z,33.80
2023-02-01T07:26:39.673Z,33.70
2023-02-01T07:29:07.999Z,39.90
2023-02-01T07:31:36.488Z,46.40
2023-02-01T07:34:04.962Z,27.70
2023-02-01T07:36:34.681Z,18.10
2023-02-01T07:39:04.603Z,19.80
2023-02-01T07:41:32.735Z,48.10
2023-02-01T07:44:01.257Z,64.30
2023-02-01T07:46:29.640Z,52.60
2023-02-01T07:48:58.048Z,34.80
2023-02-01T07:51:27.406Z,42.00
2023-02-01T07:53:56.471Z,49.30
2023-02-01T07:56:26.281Z,72.70
2023-02-01T07:58:57.262Z,33.30
2023-02-01T08:01:28.086Z,48.70
2023-02-01T08:04:02.540Z,31.40
2023-02-01T08:06:34.936Z,30.70
2023-02-01T08:09:05.075Z,31.90
2023-02-01T08:11:34.713Z,27.50
2023-02-01T08:14:02.990Z,57.60
2023-02-01T08:16:31.556Z,89.80
2023-02-01T08:19:00.370Z,46.10
2023-02-01T08:21:38.139Z,102.40
2023-02-01T08:24:09.467Z,25.10
2023-02-01T08:26:37.919Z,115.80
2023-02-01T08:29:08.513Z,106.20
2023-02-01T08:31:36.834Z,44.40
2023-02-01T08:34:05.487Z,24.00
2023-02-01T08:36:33.969Z,16.10
2023-02-01T08:39:06.892Z,34.90
2023-02-01T08:41:35.332Z,31.70
2023-02-01T08:44:03.518Z,70.70
2023-02-01T08:46:32.102Z,47.90
2023-02-01T08:49:00.883Z,28.60
2023-02-01T08:51:29.551Z,59.70
2023-02-01T08:53:57.967Z,22.30
2023-02-01T08:56:26.168Z,18.10
2023-02-01T08:58:54.609Z,23.20
2023-02-01T09:01:22.924Z,19.30
2023-02-01T09:03:52.247Z,30.90
2023-02-01T09:06:20.466Z,13.10
2023-02-01T09:08:48.835Z,14.70
2023-02-01T09:11:20.563Z,41.20
2023-02-01T09:13:49.935Z,15.80
2023-02-01T09:16:18.424Z,43.20
2023-02-01T09:18:56.153Z,16.00
2023-02-01T09:21:35.777Z,18.90
2023-02-01T09:24:05.343Z,29.00
2023-02-01T09:26:34.167Z,39.80
2023-02-01T09:29:02.515Z,40.20
2023-02-01T09:31:31.668Z,16.60
2023-02-01T09:34:00.595Z,53.90
2023-02-01T09:36:30.923Z,14.30
2023-02-01T09:39:01.129Z,50.30
2023-02-01T09:41:54.320Z,19.70
2023-02-01T09:44:47.763Z,19.90
2023-02-01T09:47:21.220Z,15.80
2023-02-01T09:50:04.794Z,14.90
2023-02-01T09:52:47.096Z,14.60
2023-02-01T09:55:24.951Z,21.20
2023-02-01T09:57:59.315Z,16.90
2023-02-01T10:00:33.137Z,12.60
2023-02-01T10:03:01.726Z,55.60
2023-02-01T10:05:46.060Z,19.80
2023-02-01T10:08:20.855Z,12.80
2023-02-01T10:10:50.918Z,19.40
2023-02-01T10:13:27.684Z,35.90
2023-02-01T10:16:32.714Z,12.10
2023-02-01T10:19:39.415Z,33.20
2023-02-01T10:22:13.979Z,29.50
2023-02-01T10:24:47.204Z,103.30
2023-02-01T10:27:22.364Z,34.60
2023-02-01T10:30:01.793Z,49.50
2023-02-01T10:32:54.927Z,13.50
2023-02-01T10:35:32.283Z,20.10
2023-02-01T10:38:06.068Z,9.90
2023-02-01T10:40:34.841Z,37.00
2023-02-01T10:43:04.240Z,81.40
2023-02-01T10:45:34.465Z,23.40
2023-02-01T10:48:05.272Z,34.30
2023-02-01T10:50:50.269Z,55.80
2023-02-01T10:53:43.996Z,63.40
2023-02-01T10:56:14.514Z,33.00
2023-02-01T10:58:49.713Z,10.70
2023-02-01T11:01:40.677Z,11.90
2023-02-01T11:04:14.701Z,11.40
2023-02-01T11:06:47.582Z,11.00
2023-02-01T11:09:15.899Z,17.20
2023-02-01T11:11:50.222Z,12.90
2023-02-01T11:14:35.689Z,15.40
2023-02-01T11:17:25.906Z,11.10
2023-02-01T11:20:00.124Z,12.10
2023-02-01T11:22:30.504Z,11.40
2023-02-01T11:25:02.436Z,14.20
2023-02-01T11:27:30.764Z,36.50
2023-02-01T11:30:03.291Z,16.90
2023-02-01T11:32:32.542Z,10.80
2023-02-01T11:35:06.776Z,12.80
2023-02-01T11:37:39.924Z,11.00
2023-02-01T11:40:37.817Z,10.30
2023-02-01T11:43:26.677Z,11.40
2023-02-01T11:45:59.052Z,10.70
2023-02-01T11:48:30.215Z,15.40
2023-02-01T11:51:34.307Z,12.40
2023-02-01T11:54:14.261Z,10.50
2023-02-01T11:56:43.359Z,9.20
2023-02-01T11:59:57.157Z,10.50
2023-02-01T12:03:07.805Z,14.60
2023-02-01T12:05:43.219Z,11.60
2023-02-01T12:08:36.376Z,10.20
2023-02-01T12:11:23.292Z,7.30
2023-02-01T12:14:07.135Z,6.70
2023-02-01T12:17:13.091Z,9.50
2023-02-01T12:20:12.610Z,8.00
2023-02-01T12:23:00.744Z,8.60
2023-02-01T12:26:19.570Z,7.70
2023-02-01T12:29:05.427Z,7.90
2023-02-01T12:31:58.689Z,6.70
2023-02-01T12:34:45.672Z,8.30
2023-02-01T12:37:29.318Z,9.50
2023-02-01T12:40:09.488Z,10.90
2023-02-01T12:42:43.091Z,31.30
2023-02-01T12:45:31.904Z,47.90
2023-02-01T12:48:34.506Z,16.10
2023-02-01T12:51:16.857Z,57.50
2023-02-01T12:53:51.751Z,65.90
2023-02-01T12:56:36.540Z,54.60
2023-02-01T12:59:13.077Z,32.90
2023-02-01T13:01:52.110Z,91.70
2023-02-01T13:04:56.942Z,22.60
2023-02-01T13:07:49.899Z,53.60
2023-02-01T13:10:40.001Z,57.80
2023-02-01T13:13:30.382Z,84.10
2023-02-01T13:16:28.216Z,73.80
2023-02-01T13:19:14.141Z,94.70
2023-02-01T13:21:48.045Z,48.10
2023-02-01T13:24:44.006Z,45.80
2023-02-01T13:27:17.061Z,44.30
2023-02-01T13:30:02.539Z,39.10
2023-02-01T13:33:51.529Z,56.60
2023-02-01T13:36:22.451Z,79.40
2023-02-01T13:39:16.432Z,81.20
2023-02-01T13:42:22.933Z,52.50
2023-02-01T13:44:57.425Z,44.40
2023-02-01T13:47:35.124Z,69.60
2023-02-01T13:52:45.848Z,79.80
2023-02-01T13:55:13.952Z,54.90
2023-02-01T13:57:46.075Z,12.60
2023-02-01T14:00:37.656Z,44.50
2023-02-01T14:03:06.167Z,61.50
2023-02-01T14:05:37.508Z,51.20
2023-02-01T14:08:05.995Z,138.10
2023-02-01T14:10:50.275Z,132.20
2023-02-01T14:13:41.349Z,77.60
2023-02-01T14:16:17.857Z,69.20
2023-02-01T14:18:48.618Z,100.70
2023-02-01T14:21:22.860Z,126.80
2023-02-01T14:23:57.817Z,56.60
2023-02-01T14:26:27.683Z,69.50
2023-02-01T14:29:01.227Z,86.80
2023-02-01T14:31:32.978Z,186.90
2023-02-01T14:34:12.109Z,154.20
2023-02-01T14:36:48.576Z,64.40
2023-02-01T14:39:32.213Z,189.50
2023-02-01T14:42:05.536Z,119.30
2023-02-01T14:44:37.157Z,56.90
2023-02-01T14:47:25.958Z,75.70
2023-02-01T14:50:27.889Z,99.20
2023-02-01T14:53:11.418Z,38.00
2023-02-01T14:56:10.928Z,17.00
2023-02-01T14:58:53.650Z,27.50
2023-02-01T15:01:25.152Z,45.90
2023-02-01T15:03:59.964Z,37.90
2023-02-01T15:06:39.678Z,37.10
2023-02-01T15:09:10.612Z,52.40
2023-02-01T15:11:58.059Z,107.30
2023-02-01T15:14:32.200Z,95.70
2023-02-01T15:17:01.163Z,122.00
2023-02-01T15:19:34.034Z,250.90
2023-02-01T15:22:02.407Z,82.00
2023-02-01T15:24:32.426Z,110.70
2023-02-01T15:27:06.551Z,135.90
2023-02-01T15:29:35.128Z,156.20
2023-02-01T15:32:03.796Z,169.10
2023-02-01T15:35:01.882Z,129.40
2023-02-01T15:37:32.273Z,187.60
2023-02-01T15:40:20.604Z,406.80
2023-02-01T15:43:00.506Z,369.50
2023-02-01T15:45:33.192Z,211.70
2023-02-01T15:48:01.594Z,180.70
2023-02-01T15:50:32.519Z,133.40
2023-02-01T15:53:01.197Z,105.80
2023-02-01T15:55:38.394Z,82.00
2023-02-01T15:58:18.540Z,85.30
2023-02-01T16:00:51.928Z,43.20
2023-02-01T16:03:40.584Z,39.40
2023-02-01T16:09:19.184Z,44.00
2023-02-01T16:11:56.339Z,40.70
2023-02-01T16:14:25.506Z,34.40
2023-02-01T16:16:56.567Z,38.40
2023-02-01T16:19:29.289Z,41.70
2023-02-01T16:21:59.549Z,35.70
2023-02-01T16:24:28.829Z,68.50
2023-02-01T16:26:57.343Z,103.00
2023-02-01T16:29:25.837Z,121.20
2023-02-01T16:31:54.241Z,138.00
2023-02-01T16:34:22.606Z,93.00
2023-02-01T16:36:57.978Z,112.00
2023-02-01T16:39:28.826Z,149.70
2023-02-01T16:41:58.323Z,129.10
2023-02-01T16:44:28.070Z,171.10
2023-02-01T16:46:56.553Z,244.80
2023-02-01T16:49:25.871Z,190.80
2023-02-01T16:51:59.804Z,157.80
2023-02-01T16:54:28.251Z,210.00
2023-02-01T16:56:56.742Z,182.90
2023-02-01T16:59:25.311Z,94.50
2023-02-01T17:01:53.484Z,93.90
2023-02-01T17:04:22.106Z,119.90
2023-02-01T17:06:50.775Z,75.40
2023-02-01T17:09:18.980Z,152.10
2023-02-01T17:11:47.512Z,146.80
2023-02-01T17:14:22.528Z,61.40
2023-02-01T17:16:51.758Z,113.90
2023-02-01T17:19:24.363Z,61.90
2023-02-01T17:21:56.783Z,100.60
2023-02-01T17:24:46.578Z,83.00
2023-02-01T17:27:18.476Z,127.10
2023-02-01T17:29:48.520Z,149.00
2023-02-01T17:32:23.600Z,74.60
2023-02-01T17:34:52.708Z,42.20
2023-02-01T17:37:28.389Z,60.00
2023-02-01T17:39:57.172Z,61.20
2023-02-01T17:42:27.883Z,61.30
2023-02-01T17:45:12.525Z,57.80
2023-02-01T17:47:41.006Z,120.30
2023-02-01T17:50:10.212Z,115.60
2023-02-01T17:52:38.378Z,190.10
2023-02-01T17:55:19.505Z,103.50
2023-02-01T17:57:48.345Z,66.80
2023-02-01T18:00:18.303Z,43.30
2023-02-01T18:02:46.733Z,34.20
2023-02-01T18:05:41.193Z,31.40
2023-02-01T18:08:09.617Z,31.80
2023-02-01T18:10:37.685Z,25.80
2023-02-01T18:13:06.271Z,25.50
2023-02-01T18:15:34.960Z,24.80
2023-02-01T18:18:03.288Z,62.90
2023-02-01T18:20:32.125Z,105.70
2023-02-01T18:23:01.219Z,93.30
2023-02-01T18:25:34.253Z,160.50
2023-02-01T18:28:03.110Z,87.00
2023-02-01T18:30:34.486Z,100.40
2023-02-01T18:33:03.136Z,40.50
2023-02-01T18:35:32.887Z,54.80
2023-02-01T18:38:01.273Z,66.40
2023-02-01T18:40:41.788Z,65.10
2023-02-01T18:43:12.826Z,66.50
2023-02-01T18:45:44.889Z,70.20
2023-02-01T18:48:15.118Z,88.60
2023-02-01T18:50:45.040Z,102.10
2023-02-01T18:53:21.880Z,92.40
2023-02-01T18:55:50.904Z,98.20
2023-02-01T18:58:19.618Z,108.00
2023-02-01T19:00:48.427Z,81.60
2023-02-01T19:03:18.549Z,74.60
2023-02-01T19:05:48.392Z,68.60
2023-02-01T19:08:16.690Z,69.20
2023-02-01T19:10:44.979Z,58.60
2023-02-01T19:13:13.674Z,52.90
2023-02-01T19:15:43.917Z,49.40
2023-02-01T19:18:12.617Z,51.30
2023-02-01T19:20:45.253Z,44.90
2023-02-01T19:23:15.964Z,46.60
2023-02-01T19:25:46.161Z,47.00
2023-02-01T19:28:16.017Z,45.80
2023-02-01T19:30:45.046Z,45.70
2023-02-01T19:33:14.205Z,43.10
2023-02-01T19:35:42.587Z,46.10
2023-02-01T19:38:11.577Z,51.70
2023-02-01T19:40:40.979Z,50.50
2023-02-01T19:43:09.255Z,44.40
2023-02-01T19:45:37.634Z,46.30
2023-02-01T19:48:07.914Z,49.90
2023-02-01T19:50:36.352Z,52.90
2023-02-01T19:53:05.232Z,53.80
2023-02-01T19:55:33.921Z,50.40
2023-02-01T19:58:02.704Z,54.70
2023-02-01T20:00:31.449Z,59.40
2023-02-01T20:02:59.887Z,54.20
2023-02-01T20:05:28.414Z,62.30
2023-02-01T20:07:56.593Z,53.30
2023-02-01T20:10:25.077Z,77.80
2023-02-01T20:12:53.560Z,82.20
2023-02-01T20:15:25.072Z,106.30
2023-02-01T20:17:53.803Z,106.80
2023-02-01T20:20:24.435Z,173.90
2023-02-01T20:22:53.455Z,112.10
2023-02-01T20:25:23.008Z,86.80
2023-02-01T20:27:53.122Z,60.90
2023-02-01T20:30:22.511Z,82.80
2023-02-01T20:32:51.865Z,91.70
2023-02-01T20:35:20.510Z,69.00
2023-02-01T20:37:49.491Z,59.80
2023-02-01T20:40:17.863Z,50.50
2023-02-01T20:42:46.559Z,45.10
2023-02-01T20:45:15.150Z,46.90
2023-02-01T20:47:43.696Z,44.30
2023-02-01T20:50:12.517Z,37.40
2023-02-01T20:52:40.710Z,37.60
2023-02-01T20:55:09.797Z,42.60
2023-02-01T20:57:38.290Z,83.90
2023-02-01T21:00:10.456Z,98.10
2023-02-01T21:02:39.030Z,91.80
2023-02-01T21:05:08.132Z,169.80
2023-02-01T21:07:38.040Z,67.00
2023-02-01T21:10:07.869Z,67.30
2023-02-01T21:12:36.539Z,59.40
2023-02-01T21:15:05.916Z,47.40
2023-02-01T21:17:34.219Z,58.40
2023-02-01T21:20:02.706Z,61.00
2023-02-01T21:22:31.187Z,70.70
2023-02-01T21:25:01.682Z,50.80
2023-02-01T21:27:30.405Z,61.80
2023-02-01T21:29:58.683Z,41.50
2023-02-01T21:32:27.163Z,85.00
2023-02-01T21:34:55.538Z,72.30
2023-02-01T21:37:25.803Z,82.60
2023-02-01T21:39:54.157Z,63.90
2023-02-01T21:42:24.827Z,55.10
2023-02-01T21:44:54.079Z,44.80
2023-02-01T21:47:25.575Z,34.00
2023-02-01T21:49:54.519Z,27.20
2023-02-01T21:52:23.413Z,29.80
2023-02-01T21:54:59.739Z,26.30
2023-02-01T21:57:29.706Z,24.20
2023-02-01T21:59:59.076Z,22.90
2023-02-01T22:02:28.187Z,24.50
2023-02-01T22:04:57.899Z,24.30
2023-02-01T22:07:26.386Z,25.00
2023-02-01T22:09:54.873Z,30.80
2023-02-01T22:12:23.549Z,30.00
2023-02-01T22:14:51.936Z,38.30
2023-02-01T22:17:20.239Z,33.70
2023-02-01T22:19:48.994Z,32.50
2023-02-01T22:22:17.272Z,30.20
2023-02-01T22:24:45.857Z,31.10
2023-02-01T22:27:14.769Z,33.30
2023-02-01T22:29:44.035Z,34.50
2023-02-01T22:32:14.185Z,32.40
2023-02-01T22:34:42.583Z,29.80
2023-02-01T22:37:12.081Z,30.80
2023-02-01T22:39:41.343Z,31.30
2023-02-01T22:42:09.935Z,31.80
2023-02-01T22:44:39.074Z,30.40
2023-02-01T22:47:09.352Z,28.20
2023-02-01T22:49:37.821Z,35.30
2023-02-01T22:52:06.094Z,37.90
2023-02-01T22:54:34.580Z,40.10
2023-02-01T22:57:03.669Z,32.00
2023-02-01T22:59:32.048Z,42.60
2023-02-01T23:02:01.269Z,44.30
2023-02-01T23:04:29.624Z,39.40
2023-02-01T23:06:57.997Z,41.00
2023-02-01T23:09:26.580Z,44.20
2023-02-01T23:11:55.386Z,42.20
2023-02-01T23:14:24.056Z,34.10
2023-02-01T23:16:52.233Z,29.50
2023-02-01T23:19:21.226Z,25.00
2023-02-01T23:21:49.822Z,22.80
2023-02-01T23:24:18.293Z,23.50
2023-02-01T23:26:46.619Z,22.90
2023-02-01T23:29:18.223Z,23.00
2023-02-01T23:31:46.428Z,24.80
2023-02-01T23:34:15.074Z,23.80
2023-02-01T23:36:43.560Z,25.60
2023-02-01T23:39:12.049Z,23.90
2023-02-01T23:41:40.327Z,23.20
2023-02-01T23:44:09.215Z,21.90
2023-02-01T23:46:40.309Z,22.90
2023-02-01T23:49:09.752Z,22.10
2023-02-01T23:51:38.235Z,22.00
2023-02-01T23:54:08.517Z,23.70
2023-02-01T23:56:41.569Z,24.40
2023-02-01T23:59:14.270Z,21.40
